sensor_id;sensor_type;location;lat;lon;timestamp;P1;durP1;ratioP1;P2;durP2;ratioP2
15474;SDS011;7839;50.462;9.678;2022-09-12T00:03:26;0.50;;;0.50;;
15474;SDS011;7839;50.462;9.678;2022-09-12T00:10:06;0.40;;;0.40;;
15474;SDS011;7839;50.462;9.678;2022-09-12T00:16:46;0.50;;;0.38;;
15474;SDS011;7839;50.462;9.678;2022-09-12T00:23:26;0.50;;;0.50;;
15474;SDS011;7839;50.462;9.678;2022-09-12T00:30:07;0.55;;;0.55;;
15474;SDS011;7839;50.462;9.678;2022-09-12T00:36:47;0.40;;;0.40;;
15474;SDS011;7839;50.462;9.678;2022-09-12T00:43:34;0.40;;;0.40;;
15474;SDS011;7839;50.462;9.678;2022-09-12T00:50:15;0.50;;;0.50;;
15474;SDS011;7839;50.462;9.678;2022-09-12T00:56:58;0.40;;;0.40;;
15474;SDS011;7839;50.462;9.678;2022-09-12T01:03:40;0.52;;;0.52;;
15474;SDS011;7839;50.462;9.678;2022-09-12T01:10:20;0.45;;;0.45;;
15474;SDS011;7839;50.462;9.678;2022-09-12T01:17:01;0.40;;;0.40;;
15474;SDS011;7839;50.462;9.678;2022-09-12T01:30:43;0.60;;;0.60;;
15474;SDS011;7839;50.462;9.678;2022-09-12T01:37:38;0.30;;;0.30;;
15474;SDS011;7839;50.462;9.678;2022-09-12T01:51:17;0.50;;;0.50;;
15474;SDS011;7839;50.462;9.678;2022-09-12T01:58:07;0.50;;;0.50;;
15474;SDS011;7839;50.462;9.678;2022-09-12T02:04:50;0.40;;;0.40;;
15474;SDS011;7839;50.462;9.678;2022-09-12T02:11:32;0.40;;;0.40;;
15474;SDS011;7839;50.462;9.678;2022-09-12T02:18:14;0.50;;;0.50;;
15474;SDS011;7839;50.462;9.678;2022-09-12T02:24:58;0.40;;;0.40;;
15474;SDS011;7839;50.462;9.678;2022-09-12T02:38:40;0.30;;;0.30;;
15474;SDS011;7839;50.462;9.678;2022-09-12T02:45:23;0.40;;;0.40;;
15474;SDS011;7839;50.462;9.678;2022-09-12T02:52:04;0.47;;;0.47;;
15474;SDS011;7839;50.462;9.678;2022-09-12T02:58:44;0.30;;;0.30;;
15474;SDS011;7839;50.462;9.678;2022-09-12T03:05:39;0.45;;;0.45;;
15474;SDS011;7839;50.462;9.678;2022-09-12T03:19:20;0.38;;;0.38;;
15474;SDS011;7839;50.462;9.678;2022-09-12T03:26:15;0.45;;;0.45;;
15474;SDS011;7839;50.462;9.678;2022-09-12T03:32:56;0.30;;;0.30;;
15474;SDS011;7839;50.462;9.678;2022-09-12T03:39:36;0.28;;;0.28;;
15474;SDS011;7839;50.462;9.678;2022-09-12T03:46:16;0.40;;;0.40;;
15474;SDS011;7839;50.462;9.678;2022-09-12T03:52:59;0.50;;;0.50;;
15474;SDS011;7839;50.462;9.678;2022-09-12T03:59:39;0.37;;;0.37;;
15474;SDS011;7839;50.462;9.678;2022-09-12T04:06:20;0.20;;;0.20;;
15474;SDS011;7839;50.462;9.678;2022-09-12T04:13:01;0.75;;;0.40;;
15474;SDS011;7839;50.462;9.678;2022-09-12T04:19:41;0.30;;;0.30;;
15474;SDS011;7839;50.462;9.678;2022-09-12T04:26:21;0.22;;;0.22;;
15474;SDS011;7839;50.462;9.678;2022-09-12T04:33:02;0.20;;;0.20;;
15474;SDS011;7839;50.462;9.678;2022-09-12T04:39:42;0.27;;;0.27;;
15474;SDS011;7839;50.462;9.678;2022-09-12T04:46:23;0.30;;;0.30;;
15474;SDS011;7839;50.462;9.678;2022-09-12T04:53:03;0.20;;;0.20;;
15474;SDS011;7839;50.462;9.678;2022-09-12T04:59:44;0.30;;;0.30;;
15474;SDS011;7839;50.462;9.678;2022-09-12T05:06:25;0.20;;;0.20;;
15474;SDS011;7839;50.462;9.678;2022-09-12T05:13:06;0.33;;;0.33;;
15474;SDS011;7839;50.462;9.678;2022-09-12T05:19:48;0.50;;;0.50;;
15474;SDS011;7839;50.462;9.678;2022-09-12T05:26:28;0.37;;;0.37;;
15474;SDS011;7839;50.462;9.678;2022-09-12T05:33:10;0.30;;;0.30;;
15474;SDS011;7839;50.462;9.678;2022-09-12T05:39:50;0.40;;;0.40;;
15474;SDS011;7839;50.462;9.678;2022-09-12T05:46:35;0.20;;;0.20;;
15474;SDS011;7839;50.462;9.678;2022-09-12T05:53:15;1.10;;;0.28;;
15474;SDS011;7839;50.462;9.678;2022-09-12T05:59:56;0.57;;;0.40;;
15474;SDS011;7839;50.462;9.678;2022-09-12T06:06:37;0.23;;;0.23;;
15474;SDS011;7839;50.462;9.678;2022-09-12T06:13:17;0.20;;;0.20;;
15474;SDS011;7839;50.462;9.678;2022-09-12T06:19:58;1.43;;;0.30;;
15474;SDS011;7839;50.462;9.678;2022-09-12T06:26:38;0.30;;;0.30;;
15474;SDS011;7839;50.462;9.678;2022-09-12T06:33:18;0.30;;;0.30;;
15474;SDS011;7839;50.462;9.678;2022-09-12T06:39:58;0.20;;;0.20;;
15474;SDS011;7839;50.462;9.678;2022-09-12T06:46:39;0.30;;;0.30;;
15474;SDS011;7839;50.462;9.678;2022-09-12T06:53:19;1.07;;;0.50;;
15474;SDS011;7839;50.462;9.678;2022-09-12T07:00:00;0.30;;;0.30;;
15474;SDS011;7839;50.462;9.678;2022-09-12T07:06:41;0.20;;;0.20;;
15474;SDS011;7839;50.462;9.678;2022-09-12T07:13:21;0.20;;;0.20;;
15474;SDS011;7839;50.462;9.678;2022-09-12T07:20:02;0.40;;;0.40;;
15474;SDS011;7839;50.462;9.678;2022-09-12T07:26:42;0.30;;;0.30;;
15474;SDS011;7839;50.462;9.678;2022-09-12T07:33:23;0.30;;;0.30;;
15474;SDS011;7839;50.462;9.678;2022-09-12T07:40:05;0.40;;;0.40;;
15474;SDS011;7839;50.462;9.678;2022-09-12T07:46:45;0.20;;;0.20;;
15474;SDS011;7839;50.462;9.678;2022-09-12T07:53:29;0.15;;;0.15;;
15474;SDS011;7839;50.462;9.678;2022-09-12T08:00:09;0.30;;;0.30;;
15474;SDS011;7839;50.462;9.678;2022-09-12T08:06:50;2.13;;;1.83;;
15474;SDS011;7839;50.462;9.678;2022-09-12T08:13:30;2.30;;;2.20;;
15474;SDS011;7839;50.462;9.678;2022-09-12T08:20:11;2.50;;;2.30;;
15474;SDS011;7839;50.462;9.678;2022-09-12T08:26:51;2.43;;;2.30;;
15474;SDS011;7839;50.462;9.678;2022-09-12T08:33:31;1.40;;;1.30;;
15474;SDS011;7839;50.462;9.678;2022-09-12T08:40:15;0.60;;;0.60;;
15474;SDS011;7839;50.462;9.678;2022-09-12T08:47:16;0.70;;;0.40;;
15474;SDS011;7839;50.462;9.678;2022-09-12T08:53:58;0.73;;;0.50;;
15474;SDS011;7839;50.462;9.678;2022-09-12T09:00:45;0.40;;;0.40;;
15474;SDS011;7839;50.462;9.678;2022-09-12T09:07:45;2.87;;;2.67;;
15474;SDS011;7839;50.462;9.678;2022-09-12T09:14:39;2.87;;;2.67;;
15474;SDS011;7839;50.462;9.678;2022-09-12T09:21:33;3.43;;;3.20;;
15474;SDS011;7839;50.462;9.678;2022-09-12T09:28:21;2.70;;;2.50;;
15474;SDS011;7839;50.462;9.678;2022-09-12T09:42:08;5.93;;;4.70;;
15474;SDS011;7839;50.462;9.678;2022-09-12T09:48:51;6.27;;;5.67;;
15474;SDS011;7839;50.462;9.678;2022-09-12T09:55:33;1.00;;;1.00;;
15474;SDS011;7839;50.462;9.678;2022-09-12T10:02:19;3.87;;;3.33;;
15474;SDS011;7839;50.462;9.678;2022-09-12T10:15:54;0.73;;;0.73;;
15474;SDS011;7839;50.462;9.678;2022-09-12T10:22:35;0.80;;;0.80;;
15474;SDS011;7839;50.462;9.678;2022-09-12T10:29:18;1.63;;;0.80;;
15474;SDS011;7839;50.462;9.678;2022-09-12T10:36:01;3.40;;;3.10;;
15474;SDS011;7839;50.462;9.678;2022-09-12T10:42:51;0.73;;;0.73;;
15474;SDS011;7839;50.462;9.678;2022-09-12T10:49:32;3.30;;;3.00;;
15474;SDS011;7839;50.462;9.678;2022-09-12T10:56:17;3.47;;;3.17;;
15474;SDS011;7839;50.462;9.678;2022-09-12T11:03:13;3.73;;;3.40;;
15474;SDS011;7839;50.462;9.678;2022-09-12T11:16:48;2.50;;;2.30;;
15474;SDS011;7839;50.462;9.678;2022-09-12T11:30:16;1.80;;;1.70;;
15474;SDS011;7839;50.462;9.678;2022-09-12T11:37:40;3.73;;;3.43;;
15474;SDS011;7839;50.462;9.678;2022-09-12T11:44:02;1.90;;;1.77;;
15474;SDS011;7839;50.462;9.678;2022-09-12T11:50:43;2.97;;;2.67;;
15474;SDS011;7839;50.462;9.678;2022-09-12T12:04:05;2.30;;;2.10;;
15474;SDS011;7839;50.462;9.678;2022-09-12T12:10:50;2.10;;;2.00;;
15474;SDS011;7839;50.462;9.678;2022-09-12T12:17:32;3.67;;;2.38;;
15474;SDS011;7839;50.462;9.678;2022-09-12T12:24:14;3.13;;;2.90;;
15474;SDS011;7839;50.462;9.678;2022-09-12T12:44:45;1.75;;;1.65;;
15474;SDS011;7839;50.462;9.678;2022-09-12T12:51:38;1.98;;;1.88;;
15474;SDS011;7839;50.462;9.678;2022-09-12T13:05:00;2.05;;;1.95;;
15474;SDS011;7839;50.462;9.678;2022-09-12T13:11:41;2.92;;;2.35;;
15474;SDS011;7839;50.462;9.678;2022-09-12T13:18:26;1.75;;;1.65;;
15474;SDS011;7839;50.462;9.678;2022-09-12T13:32:07;1.92;;;1.83;;
15474;SDS011;7839;50.462;9.678;2022-09-12T13:45:46;2.17;;;2.08;;
15474;SDS011;7839;50.462;9.678;2022-09-12T13:52:28;2.60;;;2.40;;
15474;SDS011;7839;50.462;9.678;2022-09-12T13:59:09;2.05;;;1.95;;
15474;SDS011;7839;50.462;9.678;2022-09-12T14:05:54;1.85;;;1.75;;
15474;SDS011;7839;50.462;9.678;2022-09-12T14:12:38;2.20;;;2.03;;
15474;SDS011;7839;50.462;9.678;2022-09-12T14:19:22;1.90;;;1.80;;
15474;SDS011;7839;50.462;9.678;2022-09-12T14:26:04;2.45;;;2.20;;
15474;SDS011;7839;50.462;9.678;2022-09-12T14:39:44;2.13;;;2.03;;
15474;SDS011;7839;50.462;9.678;2022-09-12T14:46:32;2.08;;;1.98;;
15474;SDS011;7839;50.462;9.678;2022-09-12T15:00:09;1.98;;;1.88;;
15474;SDS011;7839;50.462;9.678;2022-09-12T15:06:53;1.77;;;1.67;;
15474;SDS011;7839;50.462;9.678;2022-09-12T15:13:38;2.30;;;2.10;;
15474;SDS011;7839;50.462;9.678;2022-09-12T15:20:18;1.90;;;1.80;;
15474;SDS011;7839;50.462;9.678;2022-09-12T15:26:58;2.08;;;1.88;;
15474;SDS011;7839;50.462;9.678;2022-09-12T15:33:39;1.88;;;1.77;;
15474;SDS011;7839;50.462;9.678;2022-09-12T15:40:19;1.90;;;1.80;;
15474;SDS011;7839;50.462;9.678;2022-09-12T15:46:59;2.03;;;1.92;;
15474;SDS011;7839;50.462;9.678;2022-09-12T15:53:39;1.90;;;1.80;;
15474;SDS011;7839;50.462;9.678;2022-09-12T16:00:20;2.08;;;1.98;;
15474;SDS011;7839;50.462;9.678;2022-09-12T16:07:00;2.10;;;2.00;;
15474;SDS011;7839;50.462;9.678;2022-09-12T16:13:40;2.00;;;1.90;;
15474;SDS011;7839;50.462;9.678;2022-09-12T16:20:21;1.90;;;1.80;;
15474;SDS011;7839;50.462;9.678;2022-09-12T16:27:03;2.25;;;2.15;;
15474;SDS011;7839;50.462;9.678;2022-09-12T16:33:44;2.08;;;1.98;;
15474;SDS011;7839;50.462;9.678;2022-09-12T16:40:24;2.35;;;2.15;;
15474;SDS011;7839;50.462;9.678;2022-09-12T16:47:05;2.60;;;2.40;;
15474;SDS011;7839;50.462;9.678;2022-09-12T16:53:45;2.22;;;2.13;;
15474;SDS011;7839;50.462;9.678;2022-09-12T17:00:26;2.05;;;1.95;;
15474;SDS011;7839;50.462;9.678;2022-09-12T17:07:06;2.50;;;2.40;;
15474;SDS011;7839;50.462;9.678;2022-09-12T17:13:50;2.33;;;2.20;;
15474;SDS011;7839;50.462;9.678;2022-09-12T17:20:34;3.63;;;2.50;;
15474;SDS011;7839;50.462;9.678;2022-09-12T17:27:16;2.10;;;2.00;;
15474;SDS011;7839;50.462;9.678;2022-09-12T17:33:57;2.28;;;2.08;;
15474;SDS011;7839;50.462;9.678;2022-09-12T17:40:37;2.42;;;2.10;;
15474;SDS011;7839;50.462;9.678;2022-09-12T17:47:17;2.00;;;1.90;;
15474;SDS011;7839;50.462;9.678;2022-09-12T17:54:08;1.98;;;1.88;;
15474;SDS011;7839;50.462;9.678;2022-09-12T18:00:49;1.70;;;1.60;;
15474;SDS011;7839;50.462;9.678;2022-09-12T18:07:48;2.05;;;1.92;;
15474;SDS011;7839;50.462;9.678;2022-09-12T18:14:28;1.98;;;1.83;;
15474;SDS011;7839;50.462;9.678;2022-09-12T18:21:11;1.70;;;1.60;;
15474;SDS011;7839;50.462;9.678;2022-09-12T18:27:52;1.60;;;1.50;;
15474;SDS011;7839;50.462;9.678;2022-09-12T18:34:32;1.80;;;1.70;;
15474;SDS011;7839;50.462;9.678;2022-09-12T18:41:13;1.60;;;1.50;;
15474;SDS011;7839;50.462;9.678;2022-09-12T18:47:54;1.42;;;1.33;;
15474;SDS011;7839;50.462;9.678;2022-09-12T18:54:34;1.65;;;1.55;;
15474;SDS011;7839;50.462;9.678;2022-09-12T19:01:16;1.50;;;1.42;;
15474;SDS011;7839;50.462;9.678;2022-09-12T19:07:56;2.05;;;1.33;;
15474;SDS011;7839;50.462;9.678;2022-09-12T19:14:36;1.23;;;1.15;;
15474;SDS011;7839;50.462;9.678;2022-09-12T19:21:21;1.40;;;1.30;;
15474;SDS011;7839;50.462;9.678;2022-09-12T19:28:02;1.25;;;1.17;;
15474;SDS011;7839;50.462;9.678;2022-09-12T19:34:42;0.90;;;0.90;;
15474;SDS011;7839;50.462;9.678;2022-09-12T19:41:22;1.13;;;1.02;;
15474;SDS011;7839;50.462;9.678;2022-09-12T19:48:02;1.17;;;1.17;;
15474;SDS011;7839;50.462;9.678;2022-09-12T19:54:42;1.13;;;1.13;;
15474;SDS011;7839;50.462;9.678;2022-09-12T20:01:25;1.83;;;1.00;;
15474;SDS011;7839;50.462;9.678;2022-09-12T20:08:08;1.20;;;1.08;;
15474;SDS011;7839;50.462;9.678;2022-09-12T20:14:48;0.90;;;0.90;;
15474;SDS011;7839;50.462;9.678;2022-09-12T20:21:29;1.55;;;1.30;;
15474;SDS011;7839;50.462;9.678;2022-09-12T20:28:10;1.10;;;1.08;;
15474;SDS011;7839;50.462;9.678;2022-09-12T20:34:50;1.25;;;1.00;;
15474;SDS011;7839;50.462;9.678;2022-09-12T20:41:32;0.95;;;0.95;;
15474;SDS011;7839;50.462;9.678;2022-09-12T20:48:12;0.95;;;0.95;;
15474;SDS011;7839;50.462;9.678;2022-09-12T20:54:52;0.80;;;0.80;;
15474;SDS011;7839;50.462;9.678;2022-09-12T21:01:33;0.88;;;0.88;;
15474;SDS011;7839;50.462;9.678;2022-09-12T21:08:13;0.88;;;0.88;;
15474;SDS011;7839;50.462;9.678;2022-09-12T21:14:53;0.82;;;0.82;;
15474;SDS011;7839;50.462;9.678;2022-09-12T21:21:34;0.80;;;0.80;;
15474;SDS011;7839;50.462;9.678;2022-09-12T21:28:15;0.82;;;0.82;;
15474;SDS011;7839;50.462;9.678;2022-09-12T21:34:55;0.70;;;0.70;;
15474;SDS011;7839;50.462;9.678;2022-09-12T21:41:35;0.80;;;0.80;;
15474;SDS011;7839;50.462;9.678;2022-09-12T21:48:16;1.00;;;1.00;;
15474;SDS011;7839;50.462;9.678;2022-09-12T21:54:56;0.90;;;0.90;;
15474;SDS011;7839;50.462;9.678;2022-09-12T22:01:36;1.10;;;0.80;;
15474;SDS011;7839;50.462;9.678;2022-09-12T22:08:16;3.22;;;3.03;;
15474;SDS011;7839;50.462;9.678;2022-09-12T22:14:57;0.70;;;0.70;;
15474;SDS011;7839;50.462;9.678;2022-09-12T22:21:38;1.00;;;0.90;;
15474;SDS011;7839;50.462;9.678;2022-09-12T22:28:38;0.75;;;0.75;;
15474;SDS011;7839;50.462;9.678;2022-09-12T22:35:20;0.80;;;0.80;;
15474;SDS011;7839;50.462;9.678;2022-09-12T22:42:00;0.77;;;0.77;;
15474;SDS011;7839;50.462;9.678;2022-09-12T22:48:42;0.80;;;0.80;;
15474;SDS011;7839;50.462;9.678;2022-09-12T22:55:22;2.30;;;0.75;;
15474;SDS011;7839;50.462;9.678;2022-09-12T23:02:03;0.70;;;0.60;;
15474;SDS011;7839;50.462;9.678;2022-09-12T23:08:44;0.80;;;0.80;;
15474;SDS011;7839;50.462;9.678;2022-09-12T23:15:24;0.52;;;0.52;;
15474;SDS011;7839;50.462;9.678;2022-09-12T23:22:04;0.70;;;0.70;;
15474;SDS011;7839;50.462;9.678;2022-09-12T23:28:48;0.60;;;0.60;;
15474;SDS011;7839;50.462;9.678;2022-09-12T23:35:29;0.70;;;0.70;;
15474;SDS011;7839;50.462;9.678;2022-09-12T23:42:09;4.70;;;3.95;;
15474;SDS011;7839;50.462;9.678;2022-09-12T23:48:49;3.30;;;3.00;;
15474;SDS011;7839;50.462;9.678;2022-09-12T23:55:32;0.80;;;0.80;;
